createdAt,value
2022-07-29T00:00:38.021Z,52.66
2022-07-29T00:02:43.929Z,52.79
2022-07-29T00:04:46.538Z,52.90
2022-07-29T00:06:49.585Z,52.92
2022-07-29T00:08:52.745Z,53.05
2022-07-29T00:10:55.365Z,53.23
2022-07-29T00:12:58.094Z,53.29
2022-07-29T00:15:01.500Z,53.36
2022-07-29T00:17:04.214Z,53.61
2022-07-29T00:19:09.693Z,53.74
2022-07-29T00:21:13.776Z,53.77
2022-07-29T00:23:16.513Z,53.81
2022-07-29T00:25:19.117Z,53.96
2022-07-29T00:27:21.866Z,54.17
2022-07-29T00:29:35.222Z,54.15
2022-07-29T00:31:38.086Z,54.27
2022-07-29T00:33:40.903Z,54.34
2022-07-29T00:35:43.377Z,54.38
2022-07-29T00:37:46.247Z,54.68
2022-07-29T00:39:49.993Z,54.64
2022-07-29T00:41:52.835Z,55.00
2022-07-29T00:43:55.981Z,54.99
2022-07-29T00:45:58.592Z,55.30
2022-07-29T00:48:01.235Z,55.27
2022-07-29T00:50:05.719Z,55.35
2022-07-29T00:52:09.803Z,55.67
2022-07-29T00:54:13.890Z,55.59
2022-07-29T00:56:16.808Z,55.82
2022-07-29T00:58:19.722Z,55.85
2022-07-29T01:00:24.560Z,55.77
2022-07-29T01:02:31.243Z,55.84
2022-07-29T01:04:34.231Z,56.20
2022-07-29T01:06:37.192Z,56.12
2022-07-29T01:08:40.611Z,56.25
2022-07-29T01:10:44.651Z,56.31
2022-07-29T01:12:49.561Z,56.46
2022-07-29T01:14:55.060Z,56.58
2022-07-29T01:17:06.853Z,56.76
2022-07-29T01:19:33.086Z,56.79
2022-07-29T01:21:52.102Z,56.95
2022-07-29T01:24:08.030Z,57.07
2022-07-29T01:26:38.429Z,57.18
2022-07-29T01:28:56.018Z,57.28
2022-07-29T01:31:02.285Z,57.52
2022-07-29T01:33:11.729Z,57.59
2022-07-29T01:35:21.497Z,57.80
2022-07-29T01:37:30.069Z,57.93
2022-07-29T01:39:35.346Z,58.04
2022-07-29T01:41:45.570Z,58.40
2022-07-29T01:43:53.920Z,58.30
2022-07-29T01:46:00.947Z,58.50
2022-07-29T01:48:10.773Z,58.70
2022-07-29T01:50:17.924Z,58.67
2022-07-29T01:52:26.852Z,58.83
2022-07-29T01:54:36.655Z,58.63
2022-07-29T01:56:42.465Z,58.64
2022-07-29T01:58:48.540Z,58.76
2022-07-29T02:00:51.986Z,58.77
2022-07-29T02:02:56.368Z,59.07
2022-07-29T02:05:00.965Z,59.55
2022-07-29T02:07:06.499Z,59.18
2022-07-29T02:09:11.993Z,59.18
2022-07-29T02:11:14.654Z,59.29
2022-07-29T02:13:20.482Z,59.44
2022-07-29T02:15:24.587Z,59.53
2022-07-29T02:17:31.445Z,59.53
2022-07-29T02:19:36.730Z,59.84
2022-07-29T02:21:40.774Z,59.99
2022-07-29T02:23:51.319Z,60.08
2022-07-29T02:25:56.397Z,60.42
2022-07-29T02:28:00.704Z,60.34
2022-07-29T02:30:05.997Z,60.64
2022-07-29T02:32:13.718Z,60.55
2022-07-29T02:34:19.056Z,60.96
2022-07-29T02:36:25.475Z,60.69
2022-07-29T02:38:31.114Z,60.83
2022-07-29T02:40:35.755Z,60.98
2022-07-29T02:42:39.040Z,61.18
2022-07-29T02:44:44.126Z,61.29
2022-07-29T02:46:53.821Z,61.47
2022-07-29T02:49:02.239Z,61.75
2022-07-29T02:51:12.766Z,61.64
2022-07-29T02:53:35.821Z,61.55
2022-07-29T02:55:46.858Z,61.48
2022-07-29T02:57:56.826Z,61.71
2022-07-29T03:00:02.073Z,61.87
2022-07-29T03:02:07.479Z,61.90
2022-07-29T03:04:11.974Z,61.87
2022-07-29T03:06:37.354Z,61.92
2022-07-29T03:08:38.648Z,61.77
2022-07-29T03:10:44.935Z,61.70
2022-07-29T03:12:48.919Z,61.72
2022-07-29T03:14:51.803Z,61.67
2022-07-29T03:16:55.134Z,61.67
2022-07-29T03:18:58.157Z,62.00
2022-07-29T03:21:00.970Z,61.87
2022-07-29T03:23:03.916Z,61.72
2022-07-29T03:25:10.402Z,61.89
2022-07-29T03:27:13.105Z,61.65
2022-07-29T03:29:15.704Z,61.71
2022-07-29T03:31:22.553Z,61.69
2022-07-29T03:33:25.216Z,61.59
2022-07-29T03:35:28.141Z,61.60
2022-07-29T03:37:33.924Z,61.79
2022-07-29T03:39:41.095Z,61.71
2022-07-29T03:41:48.048Z,61.86
2022-07-29T03:43:51.816Z,61.95
2022-07-29T03:45:58.043Z,61.94
2022-07-29T03:48:06.114Z,61.70
2022-07-29T03:50:12.409Z,61.67
2022-07-29T03:52:15.292Z,61.66
2022-07-29T03:54:18.524Z,61.64
2022-07-29T03:56:22.900Z,61.55
2022-07-29T03:58:28.263Z,61.65
2022-07-29T04:00:32.003Z,61.94
2022-07-29T04:02:36.222Z,61.97
2022-07-29T04:04:38.950Z,61.75
2022-07-29T04:06:43.596Z,61.52
2022-07-29T04:08:46.796Z,61.51
2022-07-29T04:10:49.380Z,61.39
2022-07-29T04:12:52.366Z,61.35
2022-07-29T04:14:54.999Z,61.37
2022-07-29T04:16:57.504Z,61.17
2022-07-29T04:19:00.521Z,60.93
2022-07-29T04:21:03.215Z,60.73
2022-07-29T04:23:05.852Z,60.54
2022-07-29T04:25:09.664Z,60.34
2022-07-29T04:27:13.114Z,60.14
2022-07-29T04:29:15.768Z,59.94
2022-07-29T04:31:21.279Z,59.82
2022-07-29T04:33:27.940Z,59.87
2022-07-29T04:35:38.537Z,59.94
2022-07-29T04:37:41.523Z,59.86
2022-07-29T04:39:44.147Z,59.86
2022-07-29T04:41:46.733Z,60.04
2022-07-29T04:43:49.385Z,59.71
2022-07-29T04:45:52.442Z,59.42
2022-07-29T04:47:55.156Z,59.37
2022-07-29T04:49:57.741Z,59.29
2022-07-29T04:52:00.328Z,59.24
2022-07-29T04:54:03.071Z,58.95
2022-07-29T04:56:06.336Z,58.88
2022-07-29T04:58:08.979Z,58.69
2022-07-29T05:00:13.380Z,58.50
2022-07-29T05:02:16.039Z,58.37
2022-07-29T05:04:19.055Z,58.30
2022-07-29T05:06:22.242Z,58.28
2022-07-29T05:08:24.783Z,58.29
2022-07-29T05:10:27.303Z,58.13
2022-07-29T05:12:29.928Z,58.07
2022-07-29T05:14:33.009Z,57.92
2022-07-29T05:16:36.120Z,57.85
2022-07-29T05:18:38.752Z,57.64
2022-07-29T05:20:41.451Z,57.48
2022-07-29T05:22:44.325Z,57.41
2022-07-29T05:24:46.939Z,57.29
2022-07-29T05:26:49.529Z,57.15
2022-07-29T05:28:55.040Z,57.13
2022-07-29T05:30:57.710Z,57.07
2022-07-29T05:33:00.362Z,56.94
2022-07-29T05:35:03.453Z,56.88
2022-07-29T05:37:06.155Z,56.86
2022-07-29T05:39:09.707Z,57.13
2022-07-29T05:41:12.318Z,57.21
2022-07-29T05:43:14.927Z,57.21
2022-07-29T05:45:17.538Z,57.08
2022-07-29T05:47:20.311Z,56.96
2022-07-29T05:49:27.281Z,56.95
2022-07-29T05:51:31.639Z,56.88
2022-07-29T05:53:34.166Z,56.88
2022-07-29T05:55:36.794Z,57.04
2022-07-29T05:57:41.540Z,56.70
2022-07-29T05:59:44.171Z,56.86
2022-07-29T06:01:46.784Z,56.57
2022-07-29T06:03:49.843Z,56.53
2022-07-29T06:05:52.441Z,56.22
2022-07-29T06:07:54.988Z,56.28
2022-07-29T06:09:57.605Z,56.05
2022-07-29T06:12:00.427Z,55.71
2022-07-29T06:14:03.727Z,55.87
2022-07-29T06:16:12.493Z,55.81
2022-07-29T06:18:18.541Z,55.47
2022-07-29T06:20:27.227Z,55.50
2022-07-29T06:22:29.900Z,55.50
2022-07-29T06:24:32.642Z,55.27
2022-07-29T06:26:39.614Z,54.92
2022-07-29T06:28:42.683Z,55.03
2022-07-29T06:30:46.691Z,54.93
2022-07-29T06:32:51.314Z,55.06
2022-07-29T06:35:02.737Z,54.98
2022-07-29T06:37:16.436Z,54.64
2022-07-29T06:39:19.031Z,54.69
2022-07-29T06:41:21.586Z,54.68
2022-07-29T06:43:24.128Z,54.74
2022-07-29T06:45:29.005Z,54.56
2022-07-29T06:47:31.590Z,54.63
2022-07-29T06:49:34.430Z,54.33
2022-07-29T06:51:37.276Z,54.26
2022-07-29T06:54:00.004Z,54.12
2022-07-29T06:56:07.269Z,54.21
2022-07-29T06:58:09.851Z,53.94
2022-07-29T07:00:14.785Z,54.35
2022-07-29T07:02:19.991Z,54.01
2022-07-29T07:04:22.999Z,53.77
2022-07-29T07:06:25.754Z,53.55
2022-07-29T07:08:28.346Z,53.70
2022-07-29T07:10:31.110Z,53.55
2022-07-29T07:12:33.879Z,53.49
2022-07-29T07:14:36.512Z,53.73
2022-07-29T07:16:39.204Z,53.58
2022-07-29T07:18:41.946Z,53.37
2022-07-29T07:20:45.140Z,53.25
2022-07-29T07:22:47.813Z,53.17
2022-07-29T07:24:54.000Z,52.93
2022-07-29T07:26:56.705Z,52.92
2022-07-29T07:28:59.279Z,52.40
2022-07-29T07:31:01.783Z,52.79
2022-07-29T07:33:04.572Z,52.89
2022-07-29T07:35:10.311Z,53.26
2022-07-29T07:37:12.936Z,53.18
2022-07-29T07:39:15.481Z,53.41
2022-07-29T07:41:18.132Z,53.61
2022-07-29T07:43:20.753Z,53.36
2022-07-29T07:45:26.619Z,53.59
2022-07-29T07:47:29.214Z,53.54
2022-07-29T07:49:32.009Z,53.15
2022-07-29T07:51:34.547Z,52.80
2022-07-29T07:53:37.190Z,52.44
2022-07-29T07:56:08.993Z,52.34
2022-07-29T07:58:05.018Z,52.08
2022-07-29T08:00:10.203Z,51.89
2022-07-29T08:02:15.107Z,51.41
2022-07-29T08:04:20.969Z,51.52
2022-07-29T08:06:27.924Z,51.24
2022-07-29T08:08:30.673Z,50.85
2022-07-29T08:10:33.993Z,50.37
2022-07-29T08:12:36.880Z,49.90
2022-07-29T08:14:39.629Z,49.53
2022-07-29T08:16:42.410Z,49.39
2022-07-29T08:18:46.472Z,49.68
2022-07-29T08:20:49.374Z,49.48
2022-07-29T08:22:52.212Z,49.03
2022-07-29T08:24:55.737Z,48.70
2022-07-29T08:26:58.603Z,48.50
2022-07-29T08:29:01.494Z,48.86
2022-07-29T08:31:04.196Z,48.67
2022-07-29T08:33:06.850Z,48.75
2022-07-29T08:35:10.304Z,48.85
2022-07-29T08:37:12.985Z,48.57
2022-07-29T08:39:18.662Z,48.38
2022-07-29T08:41:21.918Z,48.59
2022-07-29T08:43:24.662Z,48.49
2022-07-29T08:45:29.995Z,48.32
2022-07-29T08:47:33.392Z,48.57
2022-07-29T08:49:36.231Z,48.52
2022-07-29T08:51:49.268Z,48.17
2022-07-29T08:53:53.340Z,47.98
2022-07-29T08:55:57.469Z,47.55
2022-07-29T08:58:01.269Z,47.79
2022-07-29T09:00:11.522Z,47.83
2022-07-29T09:02:24.015Z,47.97
2022-07-29T09:04:30.147Z,47.85
2022-07-29T09:06:38.282Z,47.82
2022-07-29T09:08:41.640Z,47.90
2022-07-29T09:10:44.813Z,47.85
2022-07-29T09:12:47.897Z,48.03
2022-07-29T09:14:51.137Z,47.76
2022-07-29T09:16:56.292Z,47.28
2022-07-29T09:18:59.037Z,47.35
2022-07-29T09:21:02.294Z,47.47
2022-07-29T09:23:08.870Z,47.25
2022-07-29T09:25:13.523Z,47.20
2022-07-29T09:27:23.927Z,47.25
2022-07-29T09:29:27.133Z,46.81
2022-07-29T09:31:36.035Z,46.58
2022-07-29T09:33:38.787Z,46.52
2022-07-29T09:35:42.159Z,46.62
2022-07-29T09:38:11.238Z,46.55
2022-07-29T09:40:16.379Z,46.13
2022-07-29T09:42:29.560Z,46.09
2022-07-29T09:44:43.966Z,45.96
2022-07-29T09:46:58.050Z,46.10
2022-07-29T09:49:11.525Z,46.42
2022-07-29T09:51:25.455Z,46.26
2022-07-29T09:53:33.646Z,46.16
2022-07-29T09:55:48.840Z,45.97
2022-07-29T09:57:51.510Z,45.75
2022-07-29T10:00:02.143Z,45.88
2022-07-29T10:02:18.930Z,46.10
2022-07-29T10:04:36.347Z,46.18
2022-07-29T10:07:03.807Z,45.88
2022-07-29T10:09:11.405Z,45.59
2022-07-29T10:11:16.631Z,46.07
2022-07-29T10:13:19.340Z,46.00
2022-07-29T10:15:24.614Z,46.34
2022-07-29T10:17:27.667Z,46.54
2022-07-29T10:19:32.162Z,46.04
2022-07-29T10:21:36.615Z,45.95
2022-07-29T10:23:46.379Z,46.09
2022-07-29T10:25:50.604Z,46.26
2022-07-29T10:27:54.476Z,46.34
2022-07-29T10:29:57.532Z,46.13
2022-07-29T10:32:27.103Z,45.52
2022-07-29T10:34:52.808Z,45.56
2022-07-29T10:37:04.214Z,45.55
2022-07-29T10:39:22.276Z,45.27
2022-07-29T10:41:44.704Z,45.60
2022-07-29T10:43:51.345Z,45.61
2022-07-29T10:45:59.544Z,45.88
2022-07-29T10:48:05.193Z,45.87
2022-07-29T10:50:16.926Z,46.00
2022-07-29T10:52:20.246Z,46.02
2022-07-29T10:54:46.684Z,46.25
2022-07-29T10:56:49.561Z,45.88
2022-07-29T10:59:25.805Z,45.81
2022-07-29T11:01:37.701Z,45.50
2022-07-29T11:03:49.476Z,45.70
2022-07-29T11:05:55.185Z,45.32
2022-07-29T11:08:26.167Z,45.54
2022-07-29T11:10:31.395Z,45.85
2022-07-29T11:12:49.982Z,45.69
2022-07-29T11:15:00.236Z,45.78
2022-07-29T11:17:06.435Z,45.98
2022-07-29T11:19:26.688Z,45.78
2022-07-29T11:21:55.018Z,45.65
2022-07-29T11:24:12.903Z,45.73
2022-07-29T11:26:23.140Z,45.80
2022-07-29T11:28:26.782Z,45.69
2022-07-29T11:30:50.080Z,45.47
2022-07-29T11:32:52.717Z,45.56
2022-07-29T11:35:17.194Z,45.70
2022-07-29T11:40:07.953Z,45.59
2022-07-29T11:42:44.519Z,45.05
2022-07-29T11:44:57.075Z,45.01
2022-07-29T11:47:01.903Z,44.83
2022-07-29T11:49:09.261Z,44.62
2022-07-29T11:51:13.311Z,44.43
2022-07-29T11:53:16.430Z,44.34
2022-07-29T11:55:20.398Z,44.51
2022-07-29T11:59:49.332Z,44.67
2022-07-29T12:02:33.187Z,44.44
2022-07-29T12:04:20.336Z,44.33
2022-07-29T12:06:23.482Z,44.48
2022-07-29T12:07:03.555Z,44.59
2022-07-29T12:08:26.241Z,44.56
2022-07-29T12:10:32.235Z,44.82
2022-07-29T12:12:36.807Z,44.58
2022-07-29T12:14:40.271Z,44.64
2022-07-29T12:16:43.184Z,44.74
2022-07-29T12:18:57.304Z,44.90
2022-07-29T12:21:03.664Z,44.76
2022-07-29T12:23:08.059Z,44.66
2022-07-29T12:27:40.376Z,44.25
2022-07-29T12:29:47.975Z,43.98
2022-07-29T12:31:54.410Z,43.95
2022-07-29T12:34:00.829Z,44.18
2022-07-29T12:36:09.562Z,43.99
2022-07-29T12:38:14.463Z,44.22
2022-07-29T12:40:18.463Z,44.05
2022-07-29T12:42:21.103Z,44.02
2022-07-29T12:44:43.246Z,44.00
2022-07-29T12:46:46.130Z,43.78
2022-07-29T12:48:53.500Z,43.98
2022-07-29T12:50:59.140Z,44.31
2022-07-29T12:53:11.342Z,44.16
2022-07-29T12:55:14.241Z,44.40
2022-07-29T12:57:19.924Z,44.33
2022-07-29T12:59:23.234Z,44.72
2022-07-29T13:01:26.059Z,44.83
2022-07-29T13:03:28.922Z,44.79
2022-07-29T13:05:45.771Z,45.00
2022-07-29T13:07:55.221Z,44.75
2022-07-29T13:10:17.211Z,44.94
2022-07-29T13:12:21.027Z,45.17
2022-07-29T13:14:33.077Z,45.15
2022-07-29T13:16:36.547Z,45.29
2022-07-29T13:18:39.338Z,45.24
2022-07-29T13:20:42.126Z,45.34
2022-07-29T13:22:48.670Z,45.57
2022-07-29T13:24:53.076Z,45.53
2022-07-29T13:26:55.648Z,45.69
2022-07-29T13:28:58.544Z,45.67
2022-07-29T13:31:01.734Z,46.20
2022-07-29T13:33:04.492Z,46.09
2022-07-29T13:35:09.234Z,46.77
2022-07-29T13:37:15.280Z,47.15
2022-07-29T13:39:17.988Z,47.64
2022-07-29T13:41:20.661Z,47.63
2022-07-29T13:43:23.327Z,48.39
2022-07-29T13:45:26.005Z,48.68
2022-07-29T13:47:35.049Z,49.09
2022-07-29T13:49:38.142Z,49.65
2022-07-29T13:51:40.780Z,50.88
2022-07-29T13:53:44.483Z,52.29
2022-07-29T13:55:47.220Z,53.07
2022-07-29T13:57:51.386Z,54.17
2022-07-29T13:59:54.724Z,55.00
2022-07-29T14:01:57.799Z,56.16
2022-07-29T14:04:00.791Z,57.19
2022-07-29T14:06:04.527Z,58.82
2022-07-29T14:08:07.268Z,59.63
2022-07-29T14:10:12.177Z,61.14
2022-07-29T14:12:14.812Z,61.93
2022-07-29T14:14:17.864Z,62.70
2022-07-29T14:16:21.527Z,64.82
2022-07-29T14:18:24.294Z,65.78
2022-07-29T14:20:27.047Z,66.63
2022-07-29T14:22:29.688Z,67.46
2022-07-29T14:24:32.642Z,68.14
2022-07-29T14:26:39.524Z,68.42
2022-07-29T14:28:42.261Z,70.23
2022-07-29T14:30:45.164Z,71.62
2022-07-29T14:32:50.605Z,72.82
2022-07-29T14:34:53.288Z,73.14
2022-07-29T14:36:55.947Z,74.41
2022-07-29T14:38:58.534Z,75.17
2022-07-29T14:41:01.589Z,75.99
2022-07-29T14:43:04.531Z,77.26
2022-07-29T14:45:09.854Z,79.10
2022-07-29T14:47:12.782Z,80.82
2022-07-29T14:49:15.558Z,81.00
2022-07-29T14:51:18.383Z,81.78
2022-07-29T14:53:21.288Z,82.50
2022-07-29T14:55:27.021Z,83.41
2022-07-29T14:57:29.654Z,83.61
2022-07-29T14:59:32.430Z,84.11
2022-07-29T15:01:35.202Z,84.56
2022-07-29T15:03:37.976Z,84.93
2022-07-29T15:05:40.726Z,84.99
2022-07-29T15:07:43.415Z,84.91
2022-07-29T15:09:49.772Z,85.92
2022-07-29T15:11:52.909Z,85.32
2022-07-29T15:13:56.161Z,84.73
2022-07-29T15:16:00.305Z,83.96
2022-07-29T15:18:03.290Z,83.68
2022-07-29T15:20:08.173Z,83.54
2022-07-29T15:22:10.750Z,83.52
2022-07-29T15:24:13.445Z,82.82
2022-07-29T15:26:16.120Z,82.81
2022-07-29T15:28:18.956Z,82.55
2022-07-29T15:30:31.582Z,82.52
2022-07-29T15:32:36.458Z,82.46
2022-07-29T15:34:39.310Z,82.19
2022-07-29T15:36:57.584Z,82.03
2022-07-29T15:39:00.196Z,81.77
2022-07-29T15:41:02.886Z,81.69
2022-07-29T15:43:08.836Z,81.58
2022-07-29T15:45:11.694Z,81.69
2022-07-29T15:47:14.466Z,81.89
2022-07-29T15:49:19.197Z,82.04
2022-07-29T15:51:25.773Z,82.46
2022-07-29T15:53:28.438Z,82.68
2022-07-29T15:55:31.221Z,82.47
2022-07-29T15:57:33.766Z,81.81
2022-07-29T15:59:36.509Z,81.36
2022-07-29T16:01:42.519Z,81.43
2022-07-29T16:03:46.984Z,80.92
2022-07-29T16:05:49.896Z,80.78
2022-07-29T16:07:52.550Z,80.54
2022-07-29T16:09:55.156Z,80.07
2022-07-29T16:11:58.048Z,80.00
2022-07-29T16:14:04.062Z,79.75
2022-07-29T16:16:07.236Z,79.69
2022-07-29T16:18:10.069Z,78.94
2022-07-29T16:20:14.262Z,78.95
2022-07-29T16:22:16.921Z,78.64
2022-07-29T16:24:19.581Z,78.13
2022-07-29T16:26:22.321Z,77.64
2022-07-29T16:28:25.267Z,77.67
2022-07-29T16:30:27.936Z,78.09
2022-07-29T16:32:30.535Z,77.95
2022-07-29T16:34:33.136Z,77.92
2022-07-29T16:36:35.783Z,77.37
2022-07-29T16:38:41.581Z,77.32
2022-07-29T16:40:50.249Z,77.02
2022-07-29T16:42:53.113Z,76.42
2022-07-29T16:44:55.713Z,76.06
2022-07-29T16:47:01.355Z,75.71
2022-07-29T16:49:04.308Z,75.44
2022-07-29T16:51:07.559Z,75.37
2022-07-29T16:53:10.699Z,75.20
2022-07-29T16:55:13.351Z,74.76
2022-07-29T16:57:16.030Z,74.48
2022-07-29T16:59:18.643Z,74.40
2022-07-29T17:01:21.240Z,73.53
2022-07-29T17:03:23.853Z,73.07
2022-07-29T17:05:26.616Z,72.02
2022-07-29T17:07:29.248Z,71.74
2022-07-29T17:09:31.974Z,71.72
2022-07-29T17:11:52.782Z,72.03
2022-07-29T17:13:57.116Z,71.90
2022-07-29T17:16:00.752Z,71.73
2022-07-29T17:18:12.755Z,71.99
2022-07-29T17:20:17.499Z,71.44
2022-07-29T17:22:20.936Z,71.68
2022-07-29T17:24:23.748Z,71.98
2022-07-29T17:26:28.062Z,72.03
2022-07-29T17:28:31.164Z,71.84
2022-07-29T17:30:33.956Z,71.83
2022-07-29T17:32:36.653Z,71.70
2022-07-29T17:34:41.247Z,71.66
2022-07-29T17:36:43.937Z,71.93
2022-07-29T17:38:47.231Z,72.23
2022-07-29T17:40:50.031Z,72.74
2022-07-29T17:42:52.999Z,72.60
2022-07-29T17:44:55.663Z,73.36
2022-07-29T17:46:58.721Z,73.93
2022-07-29T17:49:01.930Z,73.82
2022-07-29T17:51:06.210Z,73.76
2022-07-29T17:53:16.169Z,73.72
2022-07-29T17:55:19.387Z,73.62
2022-07-29T17:57:22.162Z,73.52
2022-07-29T17:59:24.961Z,73.51
2022-07-29T18:01:27.854Z,73.44
2022-07-29T18:03:30.611Z,73.74
2022-07-29T18:05:33.366Z,73.73
2022-07-29T18:07:36.061Z,73.94
2022-07-29T18:09:38.757Z,73.97
2022-07-29T18:11:44.438Z,74.12
2022-07-29T18:13:48.574Z,74.56
2022-07-29T18:15:51.627Z,74.46
2022-07-29T18:17:57.639Z,74.13
2022-07-29T18:20:00.735Z,74.35
2022-07-29T18:22:05.354Z,74.34
2022-07-29T18:24:09.210Z,74.58
2022-07-29T18:26:14.895Z,74.97
2022-07-29T18:28:17.873Z,75.11
2022-07-29T18:30:21.723Z,74.99
2022-07-29T18:32:29.120Z,75.12
2022-07-29T18:34:32.151Z,75.25
2022-07-29T18:36:34.975Z,75.42
2022-07-29T18:38:37.679Z,75.74
2022-07-29T18:40:40.348Z,75.93
2022-07-29T18:42:43.063Z,76.06
2022-07-29T18:44:49.102Z,76.11
2022-07-29T18:46:52.353Z,76.18
2022-07-29T18:48:55.318Z,76.20
2022-07-29T18:50:58.123Z,76.31
2022-07-29T18:53:00.895Z,76.07
2022-07-29T18:55:04.482Z,76.12
2022-07-29T18:57:54.504Z,75.74
2022-07-29T18:59:30.328Z,76.04
2022-07-29T19:01:33.115Z,76.08
2022-07-29T19:03:37.372Z,76.09
2022-07-29T19:05:40.171Z,76.09
2022-07-29T19:07:42.777Z,76.25
2022-07-29T19:09:49.438Z,76.30
2022-07-29T19:11:55.927Z,76.33
2022-07-29T19:13:59.558Z,76.33
2022-07-29T19:16:02.231Z,76.26
2022-07-29T19:18:05.300Z,76.40
2022-07-29T19:20:09.838Z,76.54
2022-07-29T19:22:12.669Z,76.47
2022-07-29T19:24:15.888Z,76.44
2022-07-29T19:26:20.404Z,76.36
2022-07-29T19:28:26.634Z,76.27
2022-07-29T19:30:29.327Z,76.13
2022-07-29T19:32:32.073Z,76.35
2022-07-29T19:34:34.883Z,76.21
2022-07-29T19:36:37.750Z,76.38
2022-07-29T19:38:40.393Z,76.47
2022-07-29T19:40:43.159Z,76.78
2022-07-29T19:42:45.987Z,76.60
2022-07-29T19:44:48.720Z,76.75
2022-07-29T19:46:51.481Z,76.67
2022-07-29T19:48:57.262Z,76.77
2022-07-29T19:50:59.944Z,76.57
2022-07-29T19:53:02.679Z,76.95
2022-07-29T19:55:07.958Z,77.29
2022-07-29T19:57:10.782Z,77.87
2022-07-29T19:59:13.463Z,78.08
2022-07-29T20:01:16.218Z,78.68
2022-07-29T20:03:18.891Z,78.73
2022-07-29T20:05:21.673Z,79.04
2022-07-29T20:07:30.762Z,79.20
2022-07-29T20:09:33.638Z,79.49
2022-07-29T20:11:36.390Z,79.75
2022-07-29T20:13:40.047Z,80.05
2022-07-29T20:15:42.891Z,80.12
2022-07-29T20:17:45.759Z,80.07
2022-07-29T20:19:48.565Z,80.14
2022-07-29T20:21:51.330Z,80.23
2022-07-29T20:23:54.374Z,80.39
2022-07-29T20:25:57.158Z,80.95
2022-07-29T20:27:59.941Z,81.49
2022-07-29T20:30:03.218Z,81.68
2022-07-29T20:32:08.072Z,81.87
2022-07-29T20:34:10.603Z,81.90
2022-07-29T20:36:13.536Z,82.22
2022-07-29T20:38:18.372Z,82.68
2022-07-29T20:40:21.994Z,82.91
2022-07-29T20:42:24.708Z,83.11
2022-07-29T20:44:27.545Z,83.50
2022-07-29T20:46:30.501Z,84.07
2022-07-29T20:48:33.263Z,84.03
2022-07-29T20:50:35.968Z,84.42
2022-07-29T20:52:38.620Z,84.56
2022-07-29T20:54:44.986Z,85.47
2022-07-29T20:56:47.811Z,85.18
2022-07-29T20:58:50.564Z,85.24
2022-07-29T21:00:53.394Z,85.48
2022-07-29T21:02:56.229Z,85.84
2022-07-29T21:04:58.928Z,85.91
2022-07-29T21:07:01.683Z,86.10
2022-07-29T21:09:04.817Z,86.02
2022-07-29T21:11:08.296Z,86.15
2022-07-29T21:13:11.007Z,86.25
2022-07-29T21:15:14.186Z,86.22
2022-07-29T21:17:17.022Z,86.20
2022-07-29T21:19:19.807Z,85.89
2022-07-29T21:21:26.587Z,85.94
2022-07-29T21:23:29.755Z,85.93
2022-07-29T21:25:32.408Z,85.89
2022-07-29T21:27:35.131Z,85.86
2022-07-29T21:29:42.825Z,85.81
2022-07-29T21:31:45.600Z,85.92
2022-07-29T21:33:48.286Z,86.18
2022-07-29T21:38:17.544Z,86.21
2022-07-29T21:40:20.546Z,85.98
2022-07-29T21:42:23.345Z,86.05
2022-07-29T21:44:27.170Z,86.05
2022-07-29T21:46:29.956Z,86.34
2022-07-29T21:48:32.648Z,86.62
2022-07-29T21:50:35.915Z,86.45
2022-07-29T21:52:38.852Z,86.48
2022-07-29T21:54:42.683Z,86.52
2022-07-29T21:56:45.360Z,86.45
2022-07-29T21:58:54.337Z,86.55
2022-07-29T22:00:57.371Z,86.46
2022-07-29T22:03:00.640Z,86.44
2022-07-29T22:05:03.720Z,86.47
2022-07-29T22:07:06.449Z,86.44
2022-07-29T22:09:09.152Z,86.45
2022-07-29T22:11:11.651Z,86.49
2022-07-29T22:13:14.269Z,86.33
2022-07-29T22:15:17.462Z,86.31
2022-07-29T22:17:20.411Z,86.32
2022-07-29T22:19:23.219Z,86.36
2022-07-29T22:21:30.620Z,86.29
2022-07-29T22:23:33.313Z,86.36
2022-07-29T22:25:38.844Z,86.33
2022-07-29T22:27:41.584Z,86.44
2022-07-29T22:29:44.319Z,86.21
2022-07-29T22:31:47.232Z,86.05
2022-07-29T22:33:50.699Z,86.13
2022-07-29T22:35:53.522Z,86.28
2022-07-29T22:37:56.225Z,85.90
2022-07-29T22:39:59.210Z,85.93
2022-07-29T22:42:01.933Z,86.04
2022-07-29T22:44:04.970Z,85.74
2022-07-29T22:46:09.350Z,85.73
2022-07-29T22:48:12.132Z,85.46
2022-07-29T22:50:14.955Z,85.41
2022-07-29T22:52:17.652Z,85.53
2022-07-29T22:54:20.280Z,85.45
2022-07-29T22:56:23.417Z,85.38
2022-07-29T22:58:26.164Z,85.34
2022-07-29T23:00:28.982Z,85.40
2022-07-29T23:02:31.724Z,85.20
2022-07-29T23:04:34.400Z,85.06
2022-07-29T23:06:37.091Z,85.12
2022-07-29T23:08:39.864Z,85.35
2022-07-29T23:10:42.739Z,85.34
2022-07-29T23:12:45.467Z,85.49
2022-07-29T23:14:48.194Z,85.46
2022-07-29T23:16:50.921Z,85.60
2022-07-29T23:18:54.041Z,85.61
2022-07-29T23:20:56.798Z,85.56
2022-07-29T23:22:59.563Z,85.81
2022-07-29T23:25:02.996Z,85.55
2022-07-29T23:27:05.655Z,85.42
2022-07-29T23:29:08.450Z,85.49
2022-07-29T23:31:14.976Z,85.49
2022-07-29T23:33:17.747Z,86.43
2022-07-29T23:35:21.558Z,86.86
2022-07-29T23:37:24.151Z,86.60
2022-07-29T23:39:29.511Z,86.44
2022-07-29T23:41:32.371Z,86.37
2022-07-29T23:43:38.039Z,86.65
2022-07-29T23:45:44.478Z,86.64
2022-07-29T23:47:51.506Z,86.91
2022-07-29T23:49:54.200Z,87.45
2022-07-29T23:51:56.978Z,86.88
2022-07-29T23:53:59.658Z,86.80
2022-07-29T23:56:02.427Z,86.77
2022-07-29T23:58:05.196Z,86.53
